sensor_id;sensor_type;location;lat;lon;timestamp;temperature;humidity
47616;DHT22;69146;52.266;7.000;2023-05-28T00:01:10;13.50;93.90
47616;DHT22;69146;52.266;7.000;2023-05-28T00:03:54;13.50;94.10
47616;DHT22;69146;52.266;7.000;2023-05-28T00:06:39;13.50;94.00
47616;DHT22;69146;52.266;7.000;2023-05-28T00:09:23;13.40;94.30
47616;DHT22;69146;52.266;7.000;2023-05-28T00:12:08;13.40;94.40
47616;DHT22;69146;52.266;7.000;2023-05-28T00:14:54;13.40;94.60
47616;DHT22;69146;52.266;7.000;2023-05-28T00:17:38;13.30;94.70
47616;DHT22;69146;52.266;7.000;2023-05-28T00:20:23;13.20;95.10
47616;DHT22;69146;52.266;7.000;2023-05-28T00:23:09;13.20;95.30
47616;DHT22;69146;52.266;7.000;2023-05-28T00:25:53;13.20;95.40
47616;DHT22;69146;52.266;7.000;2023-05-28T00:28:38;13.20;95.50
47616;DHT22;69146;52.266;7.000;2023-05-28T00:31:24;13.20;95.50
47616;DHT22;69146;52.266;7.000;2023-05-28T00:34:08;13.10;95.60
47616;DHT22;69146;52.266;7.000;2023-05-28T00:36:53;13.10;95.90
47616;DHT22;69146;52.266;7.000;2023-05-28T00:39:40;13.00;96.20
47616;DHT22;69146;52.266;7.000;2023-05-28T00:42:25;13.00;96.30
47616;DHT22;69146;52.266;7.000;2023-05-28T00:45:10;12.90;96.80
47616;DHT22;69146;52.266;7.000;2023-05-28T00:47:57;12.90;97.00
47616;DHT22;69146;52.266;7.000;2023-05-28T00:50:41;12.80;97.10
47616;DHT22;69146;52.266;7.000;2023-05-28T00:53:26;12.80;97.40
47616;DHT22;69146;52.266;7.000;2023-05-28T00:56:11;12.80;97.60
47616;DHT22;69146;52.266;7.000;2023-05-28T00:58:55;12.70;97.80
47616;DHT22;69146;52.266;7.000;2023-05-28T01:01:40;12.70;98.30
47616;DHT22;69146;52.266;7.000;2023-05-28T01:04:26;12.70;98.50
47616;DHT22;69146;52.266;7.000;2023-05-28T01:07:13;12.70;98.60
47616;DHT22;69146;52.266;7.000;2023-05-28T01:09:57;12.70;98.80
47616;DHT22;69146;52.266;7.000;2023-05-28T01:12:42;12.80;98.90
47616;DHT22;69146;52.266;7.000;2023-05-28T01:15:27;12.70;99.40
47616;DHT22;69146;52.266;7.000;2023-05-28T01:18:11;12.60;99.90
47616;DHT22;69146;52.266;7.000;2023-05-28T01:20:57;12.60;99.90
47616;DHT22;69146;52.266;7.000;2023-05-28T01:23:44;12.50;99.90
47616;DHT22;69146;52.266;7.000;2023-05-28T01:26:29;12.40;99.90
47616;DHT22;69146;52.266;7.000;2023-05-28T01:29:14;12.40;99.90
47616;DHT22;69146;52.266;7.000;2023-05-28T01:31:59;12.40;99.90
47616;DHT22;69146;52.266;7.000;2023-05-28T01:34:44;12.40;99.90
47616;DHT22;69146;52.266;7.000;2023-05-28T01:37:29;12.40;99.90
47616;DHT22;69146;52.266;7.000;2023-05-28T01:40:15;12.40;99.90
47616;DHT22;69146;52.266;7.000;2023-05-28T01:43:00;12.40;99.90
47616;DHT22;69146;52.266;7.000;2023-05-28T01:45:45;12.40;99.90
47616;DHT22;69146;52.266;7.000;2023-05-28T01:48:30;12.30;99.90
47616;DHT22;69146;52.266;7.000;2023-05-28T01:51:15;12.30;99.90
47616;DHT22;69146;52.266;7.000;2023-05-28T01:53:59;12.20;99.90
47616;DHT22;69146;52.266;7.000;2023-05-28T01:56:45;12.20;99.90
47616;DHT22;69146;52.266;7.000;2023-05-28T01:59:29;12.10;99.90
47616;DHT22;69146;52.266;7.000;2023-05-28T02:02:14;12.10;99.90
47616;DHT22;69146;52.266;7.000;2023-05-28T02:04:58;12.10;99.90
47616;DHT22;69146;52.266;7.000;2023-05-28T02:07:42;12.00;99.90
47616;DHT22;69146;52.266;7.000;2023-05-28T02:10:27;11.90;99.90
47616;DHT22;69146;52.266;7.000;2023-05-28T02:13:13;11.90;99.90
47616;DHT22;69146;52.266;7.000;2023-05-28T02:15:57;11.90;99.90
47616;DHT22;69146;52.266;7.000;2023-05-28T02:18:42;11.80;99.90
47616;DHT22;69146;52.266;7.000;2023-05-28T02:21:26;11.80;99.90
47616;DHT22;69146;52.266;7.000;2023-05-28T02:24:12;11.80;99.90
47616;DHT22;69146;52.266;7.000;2023-05-28T02:26:57;11.80;99.90
47616;DHT22;69146;52.266;7.000;2023-05-28T02:29:43;11.80;99.90
47616;DHT22;69146;52.266;7.000;2023-05-28T02:32:27;11.80;99.90
47616;DHT22;69146;52.266;7.000;2023-05-28T02:35:11;11.70;99.90
47616;DHT22;69146;52.266;7.000;2023-05-28T02:37:57;11.60;99.90
47616;DHT22;69146;52.266;7.000;2023-05-28T02:40:41;11.50;99.90
47616;DHT22;69146;52.266;7.000;2023-05-28T02:43:25;11.50;99.90
47616;DHT22;69146;52.266;7.000;2023-05-28T02:46:11;11.50;99.90
47616;DHT22;69146;52.266;7.000;2023-05-28T02:48:55;11.50;99.90
47616;DHT22;69146;52.266;7.000;2023-05-28T02:51:40;11.50;99.90
47616;DHT22;69146;52.266;7.000;2023-05-28T02:54:24;11.50;99.90
47616;DHT22;69146;52.266;7.000;2023-05-28T02:57:08;11.60;99.90
47616;DHT22;69146;52.266;7.000;2023-05-28T02:59:53;11.60;99.90
47616;DHT22;69146;52.266;7.000;2023-05-28T03:05:28;11.60;99.90
47616;DHT22;69146;52.266;7.000;2023-05-28T03:08:13;11.40;99.90
47616;DHT22;69146;52.266;7.000;2023-05-28T03:10:57;11.40;99.90
47616;DHT22;69146;52.266;7.000;2023-05-28T03:13:42;11.30;99.90
47616;DHT22;69146;52.266;7.000;2023-05-28T03:16:26;11.30;99.90
47616;DHT22;69146;52.266;7.000;2023-05-28T03:19:11;11.30;99.90
47616;DHT22;69146;52.266;7.000;2023-05-28T03:21:56;11.20;99.90
47616;DHT22;69146;52.266;7.000;2023-05-28T03:24:41;11.10;99.90
47616;DHT22;69146;52.266;7.000;2023-05-28T03:27:25;11.00;99.90
47616;DHT22;69146;52.266;7.000;2023-05-28T03:30:10;11.00;99.90
47616;DHT22;69146;52.266;7.000;2023-05-28T03:32:54;11.00;99.90
47616;DHT22;69146;52.266;7.000;2023-05-28T03:35:39;11.00;99.90
47616;DHT22;69146;52.266;7.000;2023-05-28T03:38:25;11.00;99.90
47616;DHT22;69146;52.266;7.000;2023-05-28T03:41:09;11.00;99.90
47616;DHT22;69146;52.266;7.000;2023-05-28T03:43:53;11.00;99.90
47616;DHT22;69146;52.266;7.000;2023-05-28T03:46:38;11.00;99.90
47616;DHT22;69146;52.266;7.000;2023-05-28T03:49:24;10.90;99.90
47616;DHT22;69146;52.266;7.000;2023-05-28T03:52:08;10.90;99.90
47616;DHT22;69146;52.266;7.000;2023-05-28T03:54:54;11.00;99.90
47616;DHT22;69146;52.266;7.000;2023-05-28T03:57:38;10.90;99.90
47616;DHT22;69146;52.266;7.000;2023-05-28T04:00:23;10.90;99.90
47616;DHT22;69146;52.266;7.000;2023-05-28T04:03:08;11.00;99.90
47616;DHT22;69146;52.266;7.000;2023-05-28T04:05:52;10.90;99.90
47616;DHT22;69146;52.266;7.000;2023-05-28T04:08:37;10.90;99.90
47616;DHT22;69146;52.266;7.000;2023-05-28T04:11:22;10.90;99.90
47616;DHT22;69146;52.266;7.000;2023-05-28T04:14:09;10.90;99.90
47616;DHT22;69146;52.266;7.000;2023-05-28T04:16:53;11.00;99.90
47616;DHT22;69146;52.266;7.000;2023-05-28T04:19:38;11.00;99.90
47616;DHT22;69146;52.266;7.000;2023-05-28T04:22:23;11.00;99.90
47616;DHT22;69146;52.266;7.000;2023-05-28T04:25:08;11.00;99.90
47616;DHT22;69146;52.266;7.000;2023-05-28T04:27:54;11.10;99.90
47616;DHT22;69146;52.266;7.000;2023-05-28T04:30:38;11.10;99.90
47616;DHT22;69146;52.266;7.000;2023-05-28T04:33:22;11.20;99.90
47616;DHT22;69146;52.266;7.000;2023-05-28T04:36:08;11.20;99.90
47616;DHT22;69146;52.266;7.000;2023-05-28T04:38:53;11.30;99.90
47616;DHT22;69146;52.266;7.000;2023-05-28T04:41:38;11.30;99.90
47616;DHT22;69146;52.266;7.000;2023-05-28T04:44:24;11.40;99.90
47616;DHT22;69146;52.266;7.000;2023-05-28T04:47:09;11.40;99.90
47616;DHT22;69146;52.266;7.000;2023-05-28T04:49:54;11.50;99.90
47616;DHT22;69146;52.266;7.000;2023-05-28T04:52:41;11.60;99.90
47616;DHT22;69146;52.266;7.000;2023-05-28T04:55:25;11.60;99.90
47616;DHT22;69146;52.266;7.000;2023-05-28T04:58:10;11.70;99.90
47616;DHT22;69146;52.266;7.000;2023-05-28T05:00:57;11.80;99.90
47616;DHT22;69146;52.266;7.000;2023-05-28T05:03:42;11.90;99.90
47616;DHT22;69146;52.266;7.000;2023-05-28T05:06:27;11.90;99.90
47616;DHT22;69146;52.266;7.000;2023-05-28T05:09:11;12.00;99.90
47616;DHT22;69146;52.266;7.000;2023-05-28T05:11:56;12.10;99.90
47616;DHT22;69146;52.266;7.000;2023-05-28T05:14:40;12.20;99.90
47616;DHT22;69146;52.266;7.000;2023-05-28T05:17:26;12.40;99.90
47616;DHT22;69146;52.266;7.000;2023-05-28T05:20:10;12.50;99.90
47616;DHT22;69146;52.266;7.000;2023-05-28T05:22:55;12.60;99.90
47616;DHT22;69146;52.266;7.000;2023-05-28T05:25:41;12.70;99.90
47616;DHT22;69146;52.266;7.000;2023-05-28T05:28:27;12.70;99.90
47616;DHT22;69146;52.266;7.000;2023-05-28T05:31:12;12.80;99.90
47616;DHT22;69146;52.266;7.000;2023-05-28T05:33:57;12.80;99.90
47616;DHT22;69146;52.266;7.000;2023-05-28T05:36:42;13.00;99.90
47616;DHT22;69146;52.266;7.000;2023-05-28T05:39:26;13.10;99.90
47616;DHT22;69146;52.266;7.000;2023-05-28T05:42:11;13.10;99.90
47616;DHT22;69146;52.266;7.000;2023-05-28T05:44:56;13.10;99.90
47616;DHT22;69146;52.266;7.000;2023-05-28T05:47:40;13.10;99.90
47616;DHT22;69146;52.266;7.000;2023-05-28T05:50:26;13.20;99.90
47616;DHT22;69146;52.266;7.000;2023-05-28T05:53:10;13.10;99.90
47616;DHT22;69146;52.266;7.000;2023-05-28T05:55:55;13.10;99.90
47616;DHT22;69146;52.266;7.000;2023-05-28T05:58:39;13.10;99.90
47616;DHT22;69146;52.266;7.000;2023-05-28T06:01:23;13.20;99.90
47616;DHT22;69146;52.266;7.000;2023-05-28T06:04:08;13.30;99.90
47616;DHT22;69146;52.266;7.000;2023-05-28T06:06:54;13.40;99.90
47616;DHT22;69146;52.266;7.000;2023-05-28T06:09:38;13.50;99.90
47616;DHT22;69146;52.266;7.000;2023-05-28T06:12:23;13.60;99.90
47616;DHT22;69146;52.266;7.000;2023-05-28T06:15:07;13.70;99.90
47616;DHT22;69146;52.266;7.000;2023-05-28T06:17:52;13.80;99.90
47616;DHT22;69146;52.266;7.000;2023-05-28T06:20:37;13.90;99.90
47616;DHT22;69146;52.266;7.000;2023-05-28T06:23:23;14.10;99.90
47616;DHT22;69146;52.266;7.000;2023-05-28T06:26:08;14.30;99.90
47616;DHT22;69146;52.266;7.000;2023-05-28T06:28:52;14.40;99.90
47616;DHT22;69146;52.266;7.000;2023-05-28T06:31:36;14.50;99.90
47616;DHT22;69146;52.266;7.000;2023-05-28T06:34:21;14.60;99.90
47616;DHT22;69146;52.266;7.000;2023-05-28T06:37:05;14.70;99.90
47616;DHT22;69146;52.266;7.000;2023-05-28T06:39:51;14.80;99.90
47616;DHT22;69146;52.266;7.000;2023-05-28T06:42:36;15.00;99.90
47616;DHT22;69146;52.266;7.000;2023-05-28T06:45:20;15.20;99.90
47616;DHT22;69146;52.266;7.000;2023-05-28T06:48:05;15.30;99.90
47616;DHT22;69146;52.266;7.000;2023-05-28T06:50:50;15.50;99.90
47616;DHT22;69146;52.266;7.000;2023-05-28T06:53:34;15.70;99.90
47616;DHT22;69146;52.266;7.000;2023-05-28T06:56:21;15.80;99.90
47616;DHT22;69146;52.266;7.000;2023-05-28T06:59:06;15.90;99.90
47616;DHT22;69146;52.266;7.000;2023-05-28T07:01:51;16.00;99.90
47616;DHT22;69146;52.266;7.000;2023-05-28T07:04:35;16.10;99.90
47616;DHT22;69146;52.266;7.000;2023-05-28T07:07:20;16.20;99.90
47616;DHT22;69146;52.266;7.000;2023-05-28T07:10:05;16.40;99.90
47616;DHT22;69146;52.266;7.000;2023-05-28T07:12:51;16.60;99.90
47616;DHT22;69146;52.266;7.000;2023-05-28T07:15:38;16.80;99.90
47616;DHT22;69146;52.266;7.000;2023-05-28T07:18:23;17.00;99.90
47616;DHT22;69146;52.266;7.000;2023-05-28T07:21:08;17.20;99.90
47616;DHT22;69146;52.266;7.000;2023-05-28T07:23:52;17.30;99.90
47616;DHT22;69146;52.266;7.000;2023-05-28T07:26:37;17.20;99.90
47616;DHT22;69146;52.266;7.000;2023-05-28T07:29:23;17.20;99.90
47616;DHT22;69146;52.266;7.000;2023-05-28T07:32:07;17.10;99.90
47616;DHT22;69146;52.266;7.000;2023-05-28T07:34:52;16.90;99.90
47616;DHT22;69146;52.266;7.000;2023-05-28T07:37:36;16.90;99.90
47616;DHT22;69146;52.266;7.000;2023-05-28T07:40:22;16.90;99.90
47616;DHT22;69146;52.266;7.000;2023-05-28T07:43:07;16.90;99.90
47616;DHT22;69146;52.266;7.000;2023-05-28T07:45:53;17.00;99.90
47616;DHT22;69146;52.266;7.000;2023-05-28T07:48:37;17.00;99.90
47616;DHT22;69146;52.266;7.000;2023-05-28T07:51:21;17.00;99.90
47616;DHT22;69146;52.266;7.000;2023-05-28T07:54:06;16.90;99.90
47616;DHT22;69146;52.266;7.000;2023-05-28T07:56:50;16.90;99.90
47616;DHT22;69146;52.266;7.000;2023-05-28T07:59:35;16.90;99.90
47616;DHT22;69146;52.266;7.000;2023-05-28T08:02:21;16.90;99.90
47616;DHT22;69146;52.266;7.000;2023-05-28T08:05:05;16.80;99.90
47616;DHT22;69146;52.266;7.000;2023-05-28T08:07:50;16.80;99.90
47616;DHT22;69146;52.266;7.000;2023-05-28T08:10:34;16.70;99.90
47616;DHT22;69146;52.266;7.000;2023-05-28T08:13:28;16.80;99.90
47616;DHT22;69146;52.266;7.000;2023-05-28T08:16:12;17.00;99.90
47616;DHT22;69146;52.266;7.000;2023-05-28T08:18:59;17.20;99.90
47616;DHT22;69146;52.266;7.000;2023-05-28T08:21:44;17.60;99.90
47616;DHT22;69146;52.266;7.000;2023-05-28T08:24:29;17.80;99.90
47616;DHT22;69146;52.266;7.000;2023-05-28T08:27:14;18.00;99.90
47616;DHT22;69146;52.266;7.000;2023-05-28T08:29:58;18.20;99.90
47616;DHT22;69146;52.266;7.000;2023-05-28T08:32:45;18.40;99.90
47616;DHT22;69146;52.266;7.000;2023-05-28T08:35:30;18.50;99.90
47616;DHT22;69146;52.266;7.000;2023-05-28T08:38:15;18.70;99.90
47616;DHT22;69146;52.266;7.000;2023-05-28T08:40:59;18.90;99.00
47616;DHT22;69146;52.266;7.000;2023-05-28T08:43:45;19.00;99.00
47616;DHT22;69146;52.266;7.000;2023-05-28T08:46:30;19.20;98.80
47616;DHT22;69146;52.266;7.000;2023-05-28T08:49:15;19.30;98.60
47616;DHT22;69146;52.266;7.000;2023-05-28T08:52:03;19.40;97.90
47616;DHT22;69146;52.266;7.000;2023-05-28T08:54:49;19.70;97.80
47616;DHT22;69146;52.266;7.000;2023-05-28T08:57:35;19.80;97.40
47616;DHT22;69146;52.266;7.000;2023-05-28T09:00:20;19.90;97.60
47616;DHT22;69146;52.266;7.000;2023-05-28T09:03:05;20.20;97.00
47616;DHT22;69146;52.266;7.000;2023-05-28T09:05:52;20.30;96.80
47616;DHT22;69146;52.266;7.000;2023-05-28T09:08:39;20.50;96.20
47616;DHT22;69146;52.266;7.000;2023-05-28T09:11:24;20.80;95.20
47616;DHT22;69146;52.266;7.000;2023-05-28T09:14:09;21.10;94.50
47616;DHT22;69146;52.266;7.000;2023-05-28T09:16:54;21.40;94.40
47616;DHT22;69146;52.266;7.000;2023-05-28T09:19:39;21.60;93.90
47616;DHT22;69146;52.266;7.000;2023-05-28T09:22:33;21.50;93.40
47616;DHT22;69146;52.266;7.000;2023-05-28T09:25:19;21.50;93.30
47616;DHT22;69146;52.266;7.000;2023-05-28T09:28:06;21.50;93.30
47616;DHT22;69146;52.266;7.000;2023-05-28T09:30:50;21.70;93.10
47616;DHT22;69146;52.266;7.000;2023-05-28T09:33:36;22.00;92.60
47616;DHT22;69146;52.266;7.000;2023-05-28T09:36:25;22.20;91.70
47616;DHT22;69146;52.266;7.000;2023-05-28T09:39:09;22.10;92.10
47616;DHT22;69146;52.266;7.000;2023-05-28T09:42:02;22.20;91.00
47616;DHT22;69146;52.266;7.000;2023-05-28T09:44:56;22.50;91.00
47616;DHT22;69146;52.266;7.000;2023-05-28T09:47:44;22.80;90.90
47616;DHT22;69146;52.266;7.000;2023-05-28T09:50:29;23.00;90.50
47616;DHT22;69146;52.266;7.000;2023-05-28T09:53:14;23.10;90.50
47616;DHT22;69146;52.266;7.000;2023-05-28T09:55:59;23.10;90.30
47616;DHT22;69146;52.266;7.000;2023-05-28T09:58:45;23.10;88.80
47616;DHT22;69146;52.266;7.000;2023-05-28T10:01:35;23.20;88.50
47616;DHT22;69146;52.266;7.000;2023-05-28T10:04:31;23.40;88.10
47616;DHT22;69146;52.266;7.000;2023-05-28T10:07:16;23.50;87.40
47616;DHT22;69146;52.266;7.000;2023-05-28T10:10:01;23.50;87.60
47616;DHT22;69146;52.266;7.000;2023-05-28T10:12:48;23.40;87.20
47616;DHT22;69146;52.266;7.000;2023-05-28T10:15:39;23.30;87.20
47616;DHT22;69146;52.266;7.000;2023-05-28T10:18:32;23.00;86.50
47616;DHT22;69146;52.266;7.000;2023-05-28T10:21:29;22.90;86.60
47616;DHT22;69146;52.266;7.000;2023-05-28T10:24:22;22.90;86.90
47616;DHT22;69146;52.266;7.000;2023-05-28T10:27:07;23.00;85.40
47616;DHT22;69146;52.266;7.000;2023-05-28T10:29:56;23.10;85.00
47616;DHT22;69146;52.266;7.000;2023-05-28T10:32:42;23.30;82.40
47616;DHT22;69146;52.266;7.000;2023-05-28T10:35:26;23.50;82.00
47616;DHT22;69146;52.266;7.000;2023-05-28T10:38:11;23.70;82.70
47616;DHT22;69146;52.266;7.000;2023-05-28T10:40:59;23.80;82.80
47616;DHT22;69146;52.266;7.000;2023-05-28T10:43:44;24.00;82.30
47616;DHT22;69146;52.266;7.000;2023-05-28T10:46:34;24.20;81.20
47616;DHT22;69146;52.266;7.000;2023-05-28T10:49:20;24.30;79.90
47616;DHT22;69146;52.266;7.000;2023-05-28T10:52:05;24.40;79.70
47616;DHT22;69146;52.266;7.000;2023-05-28T10:54:50;24.60;80.40
47616;DHT22;69146;52.266;7.000;2023-05-28T10:57:38;24.60;78.40
47616;DHT22;69146;52.266;7.000;2023-05-28T11:00:24;24.50;77.00
47616;DHT22;69146;52.266;7.000;2023-05-28T11:03:08;24.40;78.20
47616;DHT22;69146;52.266;7.000;2023-05-28T11:05:54;24.40;78.30
47616;DHT22;69146;52.266;7.000;2023-05-28T11:08:40;24.50;77.70
47616;DHT22;69146;52.266;7.000;2023-05-28T11:11:25;24.50;77.50
47616;DHT22;69146;52.266;7.000;2023-05-28T11:14:11;24.40;78.70
47616;DHT22;69146;52.266;7.000;2023-05-28T11:16:59;24.60;79.30
47616;DHT22;69146;52.266;7.000;2023-05-28T11:19:44;24.70;78.20
47616;DHT22;69146;52.266;7.000;2023-05-28T11:22:34;24.80;78.00
47616;DHT22;69146;52.266;7.000;2023-05-28T11:25:22;25.00;77.50
47616;DHT22;69146;52.266;7.000;2023-05-28T11:28:06;25.10;77.00
47616;DHT22;69146;52.266;7.000;2023-05-28T11:30:51;25.10;74.80
47616;DHT22;69146;52.266;7.000;2023-05-28T11:33:42;25.20;75.10
47616;DHT22;69146;52.266;7.000;2023-05-28T11:36:26;25.10;75.20
47616;DHT22;69146;52.266;7.000;2023-05-28T11:39:12;25.30;75.70
47616;DHT22;69146;52.266;7.000;2023-05-28T11:41:57;25.20;74.10
47616;DHT22;69146;52.266;7.000;2023-05-28T11:44:43;25.40;74.90
47616;DHT22;69146;52.266;7.000;2023-05-28T11:47:31;25.40;73.90
47616;DHT22;69146;52.266;7.000;2023-05-28T11:50:15;25.50;74.40
47616;DHT22;69146;52.266;7.000;2023-05-28T11:53:00;25.60;72.80
47616;DHT22;69146;52.266;7.000;2023-05-28T11:55:46;25.50;71.90
47616;DHT22;69146;52.266;7.000;2023-05-28T11:58:31;25.50;72.00
47616;DHT22;69146;52.266;7.000;2023-05-28T12:01:15;25.50;70.30
47616;DHT22;69146;52.266;7.000;2023-05-28T12:04:04;25.50;72.20
47616;DHT22;69146;52.266;7.000;2023-05-28T12:06:49;25.20;73.70
47616;DHT22;69146;52.266;7.000;2023-05-28T12:09:35;25.50;74.00
47616;DHT22;69146;52.266;7.000;2023-05-28T12:12:21;25.40;73.90
47616;DHT22;69146;52.266;7.000;2023-05-28T12:15:11;25.50;73.90
47616;DHT22;69146;52.266;7.000;2023-05-28T12:17:56;25.40;73.90
47616;DHT22;69146;52.266;7.000;2023-05-28T12:20:41;25.10;73.60
47616;DHT22;69146;52.266;7.000;2023-05-28T12:23:26;25.20;74.40
47616;DHT22;69146;52.266;7.000;2023-05-28T12:26:11;25.20;70.70
47616;DHT22;69146;52.266;7.000;2023-05-28T12:29:00;25.30;68.50
47616;DHT22;69146;52.266;7.000;2023-05-28T12:31:45;25.50;70.90
47616;DHT22;69146;52.266;7.000;2023-05-28T12:34:29;25.50;71.30
47616;DHT22;69146;52.266;7.000;2023-05-28T12:37:17;25.70;71.30
47616;DHT22;69146;52.266;7.000;2023-05-28T12:40:02;25.70;71.20
47616;DHT22;69146;52.266;7.000;2023-05-28T12:42:47;25.50;71.60
47616;DHT22;69146;52.266;7.000;2023-05-28T12:45:33;25.30;70.40
47616;DHT22;69146;52.266;7.000;2023-05-28T12:48:18;25.50;70.20
47616;DHT22;69146;52.266;7.000;2023-05-28T12:51:03;25.80;70.40
47616;DHT22;69146;52.266;7.000;2023-05-28T12:53:47;26.40;71.20
47616;DHT22;69146;52.266;7.000;2023-05-28T12:56:32;27.00;69.10
47616;DHT22;69146;52.266;7.000;2023-05-28T12:59:22;27.20;67.10
47616;DHT22;69146;52.266;7.000;2023-05-28T13:02:09;27.60;67.00
47616;DHT22;69146;52.266;7.000;2023-05-28T13:04:54;27.90;67.30
47616;DHT22;69146;52.266;7.000;2023-05-28T13:07:38;28.30;67.70
47616;DHT22;69146;52.266;7.000;2023-05-28T13:10:23;28.90;66.40
47616;DHT22;69146;52.266;7.000;2023-05-28T13:13:14;29.00;65.30
47616;DHT22;69146;52.266;7.000;2023-05-28T13:15:58;29.00;65.60
47616;DHT22;69146;52.266;7.000;2023-05-28T13:18:44;29.40;65.30
47616;DHT22;69146;52.266;7.000;2023-05-28T13:21:29;29.80;64.30
47616;DHT22;69146;52.266;7.000;2023-05-28T13:24:17;29.20;64.90
47616;DHT22;69146;52.266;7.000;2023-05-28T13:27:02;29.10;64.10
47616;DHT22;69146;52.266;7.000;2023-05-28T13:29:47;29.60;63.00
47616;DHT22;69146;52.266;7.000;2023-05-28T13:32:32;29.80;63.00
47616;DHT22;69146;52.266;7.000;2023-05-28T13:35:18;29.90;61.90
47616;DHT22;69146;52.266;7.000;2023-05-28T13:38:04;29.80;63.20
47616;DHT22;69146;52.266;7.000;2023-05-28T13:40:53;30.20;63.20
47616;DHT22;69146;52.266;7.000;2023-05-28T13:43:38;30.20;62.20
47616;DHT22;69146;52.266;7.000;2023-05-28T13:46:26;29.60;62.20
47616;DHT22;69146;52.266;7.000;2023-05-28T13:49:11;29.00;62.80
47616;DHT22;69146;52.266;7.000;2023-05-28T13:51:58;29.00;62.50
47616;DHT22;69146;52.266;7.000;2023-05-28T13:54:43;29.40;62.90
47616;DHT22;69146;52.266;7.000;2023-05-28T13:57:28;29.90;61.90
47616;DHT22;69146;52.266;7.000;2023-05-28T14:00:13;30.20;61.40
47616;DHT22;69146;52.266;7.000;2023-05-28T14:03:00;29.50;61.60
47616;DHT22;69146;52.266;7.000;2023-05-28T14:05:44;28.70;63.90
47616;DHT22;69146;52.266;7.000;2023-05-28T14:08:33;28.40;63.50
47616;DHT22;69146;52.266;7.000;2023-05-28T14:11:18;28.50;63.90
47616;DHT22;69146;52.266;7.000;2023-05-28T14:14:06;28.80;62.30
47616;DHT22;69146;52.266;7.000;2023-05-28T14:16:50;29.60;63.40
47616;DHT22;69146;52.266;7.000;2023-05-28T14:19:34;30.20;62.20
47616;DHT22;69146;52.266;7.000;2023-05-28T14:22:19;30.00;61.60
47616;DHT22;69146;52.266;7.000;2023-05-28T14:25:05;30.50;61.10
47616;DHT22;69146;52.266;7.000;2023-05-28T14:27:59;30.30;61.00
47616;DHT22;69146;52.266;7.000;2023-05-28T14:30:47;30.00;60.50
47616;DHT22;69146;52.266;7.000;2023-05-28T14:33:32;29.20;60.40
47616;DHT22;69146;52.266;7.000;2023-05-28T14:36:16;28.30;62.50
47616;DHT22;69146;52.266;7.000;2023-05-28T14:39:01;28.70;63.60
47616;DHT22;69146;52.266;7.000;2023-05-28T14:41:47;29.50;62.80
47616;DHT22;69146;52.266;7.000;2023-05-28T14:44:31;30.30;61.90
47616;DHT22;69146;52.266;7.000;2023-05-28T14:47:18;30.80;60.70
47616;DHT22;69146;52.266;7.000;2023-05-28T14:50:05;30.90;60.10
47616;DHT22;69146;52.266;7.000;2023-05-28T14:52:50;30.70;60.40
47616;DHT22;69146;52.266;7.000;2023-05-28T14:55:35;30.90;59.30
47616;DHT22;69146;52.266;7.000;2023-05-28T14:58:21;31.00;59.60
47616;DHT22;69146;52.266;7.000;2023-05-28T15:01:07;30.70;60.30
47616;DHT22;69146;52.266;7.000;2023-05-28T15:03:51;30.70;60.60
47616;DHT22;69146;52.266;7.000;2023-05-28T15:06:36;30.10;60.10
47616;DHT22;69146;52.266;7.000;2023-05-28T15:09:21;29.30;61.00
47616;DHT22;69146;52.266;7.000;2023-05-28T15:12:05;29.00;61.30
47616;DHT22;69146;52.266;7.000;2023-05-28T15:14:52;28.30;61.80
47616;DHT22;69146;52.266;7.000;2023-05-28T15:17:36;27.50;62.80
47616;DHT22;69146;52.266;7.000;2023-05-28T15:20:20;27.50;62.70
47616;DHT22;69146;52.266;7.000;2023-05-28T15:23:05;27.60;64.00
47616;DHT22;69146;52.266;7.000;2023-05-28T15:25:50;28.00;62.10
47616;DHT22;69146;52.266;7.000;2023-05-28T15:28:35;28.40;61.60
47616;DHT22;69146;52.266;7.000;2023-05-28T15:31:22;28.20;61.70
47616;DHT22;69146;52.266;7.000;2023-05-28T15:34:09;27.60;62.50
47616;DHT22;69146;52.266;7.000;2023-05-28T15:36:54;28.20;62.20
47616;DHT22;69146;52.266;7.000;2023-05-28T15:39:38;28.90;62.30
47616;DHT22;69146;52.266;7.000;2023-05-28T15:42:23;29.70;61.30
47616;DHT22;69146;52.266;7.000;2023-05-28T15:45:08;30.20;59.40
47616;DHT22;69146;52.266;7.000;2023-05-28T15:47:54;30.20;59.40
47616;DHT22;69146;52.266;7.000;2023-05-28T15:50:39;29.70;59.90
47616;DHT22;69146;52.266;7.000;2023-05-28T15:53:23;29.40;60.80
47616;DHT22;69146;52.266;7.000;2023-05-28T15:56:11;29.50;60.00
47616;DHT22;69146;52.266;7.000;2023-05-28T15:58:58;29.90;59.80
47616;DHT22;69146;52.266;7.000;2023-05-28T16:01:47;29.90;59.80
47616;DHT22;69146;52.266;7.000;2023-05-28T16:04:35;29.80;59.50
47616;DHT22;69146;52.266;7.000;2023-05-28T16:07:19;29.20;59.10
47616;DHT22;69146;52.266;7.000;2023-05-28T16:10:04;29.10;58.50
47616;DHT22;69146;52.266;7.000;2023-05-28T16:12:49;29.50;58.70
47616;DHT22;69146;52.266;7.000;2023-05-28T16:15:35;29.90;58.90
47616;DHT22;69146;52.266;7.000;2023-05-28T16:18:24;30.30;58.20
47616;DHT22;69146;52.266;7.000;2023-05-28T16:21:10;30.50;56.80
47616;DHT22;69146;52.266;7.000;2023-05-28T16:23:55;30.00;56.00
47616;DHT22;69146;52.266;7.000;2023-05-28T16:26:39;29.90;55.70
47616;DHT22;69146;52.266;7.000;2023-05-28T16:29:24;29.70;57.10
47616;DHT22;69146;52.266;7.000;2023-05-28T16:32:09;29.60;55.00
47616;DHT22;69146;52.266;7.000;2023-05-28T16:34:55;29.30;55.20
47616;DHT22;69146;52.266;7.000;2023-05-28T16:37:41;29.40;55.90
47616;DHT22;69146;52.266;7.000;2023-05-28T16:40:26;29.30;55.40
47616;DHT22;69146;52.266;7.000;2023-05-28T16:43:11;29.20;55.40
47616;DHT22;69146;52.266;7.000;2023-05-28T16:45:56;29.40;55.40
47616;DHT22;69146;52.266;7.000;2023-05-28T16:48:43;29.30;54.50
47616;DHT22;69146;52.266;7.000;2023-05-28T16:51:28;29.10;54.20
47616;DHT22;69146;52.266;7.000;2023-05-28T16:54:15;28.50;54.20
47616;DHT22;69146;52.266;7.000;2023-05-28T16:57:00;27.90;54.90
47616;DHT22;69146;52.266;7.000;2023-05-28T16:59:49;27.30;53.80
47616;DHT22;69146;52.266;7.000;2023-05-28T17:02:34;26.60;55.20
47616;DHT22;69146;52.266;7.000;2023-05-28T17:05:18;26.20;55.90
47616;DHT22;69146;52.266;7.000;2023-05-28T17:08:04;25.70;55.50
47616;DHT22;69146;52.266;7.000;2023-05-28T17:10:51;25.30;55.20
47616;DHT22;69146;52.266;7.000;2023-05-28T17:13:35;25.00;56.40
47616;DHT22;69146;52.266;7.000;2023-05-28T17:16:21;24.80;56.10
47616;DHT22;69146;52.266;7.000;2023-05-28T17:19:06;24.50;57.90
47616;DHT22;69146;52.266;7.000;2023-05-28T17:21:50;24.40;56.80
47616;DHT22;69146;52.266;7.000;2023-05-28T17:24:34;24.30;56.80
47616;DHT22;69146;52.266;7.000;2023-05-28T17:27:20;24.00;57.20